createdAt,value
2023-08-29T00:00:14.103Z,62.75
2023-08-29T00:03:06.765Z,62.86
2023-08-29T00:05:39.973Z,62.75
2023-08-29T00:08:12.334Z,62.85
2023-08-29T00:10:45.008Z,62.92
2023-08-29T00:13:17.276Z,62.93
2023-08-29T00:15:50.063Z,63.28
2023-08-29T00:18:23.075Z,63.31
2023-08-29T00:20:55.845Z,63.25
2023-08-29T00:23:29.146Z,63.22
2023-08-29T00:26:01.552Z,63.29
2023-08-29T00:28:34.007Z,63.32
2023-08-29T00:31:06.485Z,63.45
2023-08-29T00:33:38.830Z,63.60
2023-08-29T00:36:11.305Z,63.50
2023-08-29T00:38:43.989Z,63.42
2023-08-29T00:41:16.697Z,63.75
2023-08-29T00:43:48.962Z,63.57
2023-08-29T00:46:22.044Z,63.78
2023-08-29T00:48:54.696Z,63.75
2023-08-29T00:51:28.080Z,64.05
2023-08-29T00:54:02.231Z,64.08
2023-08-29T00:56:35.192Z,64.12
2023-08-29T00:59:07.520Z,64.18
2023-08-29T01:01:40.956Z,64.23
2023-08-29T01:04:13.310Z,64.32
2023-08-29T01:06:46.012Z,64.40
2023-08-29T01:09:18.988Z,64.48
2023-08-29T01:12:05.405Z,64.43
2023-08-29T01:14:42.912Z,64.78
2023-08-29T01:17:22.178Z,64.84
2023-08-29T01:19:56.371Z,64.87
2023-08-29T01:22:49.011Z,65.11
2023-08-29T01:25:29.188Z,65.58
2023-08-29T01:28:03.217Z,65.20
2023-08-29T01:30:36.851Z,65.34
2023-08-29T01:33:10.648Z,65.36
2023-08-29T01:35:48.752Z,65.46
2023-08-29T01:38:21.232Z,65.88
2023-08-29T01:40:54.039Z,65.56
2023-08-29T01:43:26.448Z,65.77
2023-08-29T01:45:59.091Z,65.68
2023-08-29T01:48:32.918Z,65.79
2023-08-29T01:51:05.687Z,65.80
2023-08-29T01:53:40.422Z,65.87
2023-08-29T01:56:17.944Z,66.31
2023-08-29T01:58:53.080Z,66.44
2023-08-29T02:01:26.066Z,66.24
2023-08-29T02:03:59.098Z,66.44
2023-08-29T02:06:31.795Z,66.50
2023-08-29T02:09:04.742Z,66.66
2023-08-29T02:11:37.161Z,66.62
2023-08-29T02:14:12.085Z,66.90
2023-08-29T02:16:44.783Z,66.76
2023-08-29T02:19:20.825Z,66.87
2023-08-29T02:21:53.545Z,66.83
2023-08-29T02:24:25.871Z,66.92
2023-08-29T02:26:58.245Z,67.17
2023-08-29T02:29:30.593Z,67.33
2023-08-29T02:32:03.950Z,67.28
2023-08-29T02:34:36.391Z,67.44
2023-08-29T02:37:09.313Z,67.50
2023-08-29T02:39:43.092Z,67.85
2023-08-29T02:42:15.882Z,67.67
2023-08-29T02:44:48.260Z,67.65
2023-08-29T02:47:20.789Z,68.02
2023-08-29T02:49:53.776Z,68.15
2023-08-29T02:52:27.808Z,68.07
2023-08-29T02:55:00.218Z,68.17
2023-08-29T02:57:32.914Z,68.38
2023-08-29T03:00:06.647Z,68.52
2023-08-29T03:02:39.129Z,68.47
2023-08-29T03:05:13.524Z,68.70
2023-08-29T03:07:46.200Z,68.60
2023-08-29T03:10:19.489Z,69.14
2023-08-29T03:12:54.344Z,68.76
2023-08-29T03:15:27.351Z,68.89
2023-08-29T03:18:01.466Z,68.98
2023-08-29T03:20:34.822Z,69.86
2023-08-29T03:23:08.006Z,70.11
2023-08-29T03:25:41.351Z,70.07
2023-08-29T03:28:13.849Z,70.33
2023-08-29T03:30:46.582Z,70.30
2023-08-29T03:33:19.025Z,70.68
2023-08-29T03:36:01.264Z,70.70
2023-08-29T03:38:34.722Z,70.62
2023-08-29T03:41:08.623Z,70.99
2023-08-29T03:43:41.302Z,71.08
2023-08-29T03:46:15.144Z,71.39
2023-08-29T03:48:48.162Z,71.43
2023-08-29T04:05:17.293Z,73.14
2023-08-29T04:07:49.650Z,73.36
2023-08-29T04:10:21.886Z,73.23
2023-08-29T04:12:54.323Z,73.11
2023-08-29T04:15:28.254Z,73.51
2023-08-29T04:18:00.688Z,73.14
2023-08-29T04:20:33.372Z,73.00
2023-08-29T04:23:08.198Z,73.34
2023-08-29T04:25:40.467Z,73.08
2023-08-29T04:28:13.356Z,73.17
2023-08-29T04:30:45.545Z,73.56
2023-08-29T04:33:18.171Z,73.57
2023-08-29T04:35:53.571Z,73.57
2023-08-29T04:38:26.039Z,73.52
2023-08-29T04:40:59.576Z,73.24
2023-08-29T04:43:31.835Z,73.37
2023-08-29T04:46:05.495Z,73.41
2023-08-29T04:48:38.188Z,73.38
2023-08-29T04:51:10.556Z,73.49
2023-08-29T04:53:42.673Z,73.60
2023-08-29T04:56:15.878Z,74.37
2023-08-29T04:58:49.032Z,73.88
2023-08-29T05:01:21.246Z,74.15
2023-08-29T05:03:53.879Z,73.78
2023-08-29T05:06:27.185Z,74.31
2023-08-29T05:08:59.674Z,74.07
2023-08-29T05:11:31.888Z,74.15
2023-08-29T05:14:04.328Z,74.49
2023-08-29T05:16:36.900Z,74.81
2023-08-29T05:19:09.456Z,75.07
2023-08-29T05:21:41.955Z,74.96
2023-08-29T05:24:16.450Z,75.04
2023-08-29T05:26:49.935Z,74.93
2023-08-29T05:29:22.398Z,74.79
2023-08-29T05:31:54.538Z,75.14
2023-08-29T05:34:27.286Z,74.79
2023-08-29T05:36:59.786Z,75.24
2023-08-29T05:39:31.898Z,75.19
2023-08-29T05:42:05.185Z,75.45
2023-08-29T05:44:39.451Z,76.15
2023-08-29T05:47:12.292Z,76.08
2023-08-29T05:49:44.600Z,75.99
2023-08-29T05:52:16.709Z,75.70
2023-08-29T05:54:49.093Z,75.96
2023-08-29T05:57:21.670Z,75.59
2023-08-29T05:59:55.070Z,75.75
2023-08-29T06:02:27.918Z,75.70
2023-08-29T06:05:00.596Z,75.92
2023-08-29T06:07:33.437Z,75.89
2023-08-29T06:10:06.098Z,76.00
2023-08-29T06:12:38.494Z,76.29
2023-08-29T06:15:14.013Z,76.49
2023-08-29T06:17:46.463Z,76.28
2023-08-29T06:20:19.903Z,76.31
2023-08-29T06:22:52.508Z,76.46
2023-08-29T06:25:25.466Z,76.47
2023-08-29T06:27:57.594Z,76.85
2023-08-29T06:30:30.415Z,76.77
2023-08-29T06:33:02.644Z,76.65
2023-08-29T06:35:39.581Z,76.95
2023-08-29T06:38:12.348Z,76.99
2023-08-29T06:40:44.802Z,77.13
2023-08-29T06:43:16.878Z,77.11
2023-08-29T06:45:49.114Z,77.13
2023-08-29T06:48:21.628Z,77.18
2023-08-29T06:50:53.822Z,77.51
2023-08-29T06:53:28.073Z,77.05
2023-08-29T06:56:00.460Z,77.09
2023-08-29T06:58:32.922Z,77.20
2023-08-29T07:01:05.134Z,77.31
2023-08-29T07:03:37.782Z,77.31
2023-08-29T07:06:10.111Z,77.57
2023-08-29T07:08:42.218Z,77.73
2023-08-29T07:11:14.801Z,77.83
2023-08-29T07:13:47.043Z,78.01
2023-08-29T07:16:19.596Z,78.10
2023-08-29T07:18:52.223Z,78.17
2023-08-29T07:21:24.764Z,78.02
2023-08-29T07:23:56.976Z,78.13
2023-08-29T07:26:29.589Z,78.03
2023-08-29T07:29:01.824Z,78.09
2023-08-29T07:31:35.854Z,77.90
2023-08-29T07:34:09.931Z,77.91
2023-08-29T07:36:42.435Z,77.84
2023-08-29T07:39:16.119Z,77.75
2023-08-29T07:41:48.264Z,77.48
2023-08-29T07:44:21.609Z,77.34
2023-08-29T07:47:11.817Z,77.40
2023-08-29T07:49:44.803Z,77.44
2023-08-29T07:52:16.978Z,77.62
2023-08-29T07:54:49.205Z,77.72
2023-08-29T07:57:21.557Z,77.76
2023-08-29T07:59:53.981Z,77.69
2023-08-29T08:02:26.327Z,77.58
2023-08-29T08:04:58.798Z,77.44
2023-08-29T08:07:31.404Z,77.18
2023-08-29T08:10:05.897Z,76.86
2023-08-29T08:12:39.459Z,77.01
2023-08-29T08:15:14.782Z,76.90
2023-08-29T08:17:47.585Z,76.61
2023-08-29T08:20:20.528Z,76.83
2023-08-29T08:22:53.338Z,76.77
2023-08-29T08:25:25.578Z,76.53
2023-08-29T08:28:00.166Z,76.16
2023-08-29T08:30:32.655Z,76.02
2023-08-29T08:33:06.360Z,75.42
2023-08-29T08:35:41.530Z,75.23
2023-08-29T08:38:20.642Z,75.18
2023-08-29T08:40:56.910Z,75.06
2023-08-29T08:43:30.860Z,74.97
2023-08-29T08:46:04.312Z,74.75
2023-08-29T08:48:36.889Z,74.61
2023-08-29T08:51:11.438Z,74.21
2023-08-29T08:53:44.145Z,74.21
2023-08-29T08:56:16.608Z,73.88
2023-08-29T08:58:48.978Z,73.91
2023-08-29T09:01:21.394Z,73.95
2023-08-29T09:03:53.748Z,74.04
2023-08-29T09:06:26.018Z,73.85
2023-08-29T09:09:16.181Z,73.81
2023-08-29T09:11:54.877Z,73.87
2023-08-29T09:14:28.819Z,73.72
2023-08-29T09:17:01.752Z,73.58
2023-08-29T09:19:35.525Z,73.29
2023-08-29T09:22:07.962Z,73.30
2023-08-29T09:24:40.791Z,73.10
2023-08-29T09:27:13.416Z,73.29
2023-08-29T09:29:45.913Z,73.44
2023-08-29T09:32:18.791Z,73.10
2023-08-29T09:34:51.855Z,73.15
2023-08-29T09:37:24.720Z,73.15
2023-08-29T09:39:58.358Z,72.94
2023-08-29T09:42:31.757Z,72.94
2023-08-29T09:45:04.376Z,72.96
2023-08-29T09:47:37.327Z,72.83
2023-08-29T09:50:11.154Z,72.87
2023-08-29T09:52:44.091Z,73.03
2023-08-29T09:55:19.222Z,72.95
2023-08-29T09:57:55.169Z,72.93
2023-08-29T10:00:27.989Z,73.04
2023-08-29T10:03:01.148Z,72.72
2023-08-29T10:05:37.576Z,72.77
2023-08-29T10:08:19.421Z,72.76
2023-08-29T10:10:56.510Z,72.79
2023-08-29T10:13:30.162Z,72.88
2023-08-29T10:16:02.742Z,72.87
2023-08-29T10:18:36.400Z,72.91
2023-08-29T10:21:09.263Z,72.77
2023-08-29T10:23:42.596Z,72.76
2023-08-29T10:26:15.380Z,72.62
2023-08-29T10:28:49.112Z,72.66
2023-08-29T10:31:22.555Z,72.61
2023-08-29T10:33:56.783Z,72.58
2023-08-29T10:36:29.107Z,72.65
2023-08-29T10:39:01.346Z,72.62
2023-08-29T10:41:47.262Z,72.62
2023-08-29T10:44:38.082Z,72.81
2023-08-29T10:47:28.045Z,72.85
2023-08-29T10:50:06.279Z,72.91
2023-08-29T10:52:43.167Z,73.06
2023-08-29T10:55:24.916Z,73.31
2023-08-29T10:57:59.923Z,73.32
2023-08-29T11:00:58.163Z,73.21
2023-08-29T11:03:51.390Z,73.34
2023-08-29T11:06:25.482Z,73.50
2023-08-29T11:09:22.452Z,73.74
2023-08-29T11:12:12.141Z,74.25
2023-08-29T11:14:54.964Z,73.91
2023-08-29T11:17:28.164Z,73.55
2023-08-29T11:20:03.024Z,73.43
2023-08-29T11:22:35.237Z,73.39
2023-08-29T11:25:09.545Z,73.59
2023-08-29T11:27:40.529Z,73.37
2023-08-29T11:30:28.415Z,73.97
2023-08-29T11:33:07.537Z,74.18
2023-08-29T11:35:40.129Z,74.25
2023-08-29T11:38:12.330Z,74.22
2023-08-29T11:40:57.040Z,74.15
2023-08-29T11:44:00.387Z,73.90
2023-08-29T11:46:36.540Z,73.93
2023-08-29T11:49:16.510Z,73.76
2023-08-29T11:51:48.601Z,73.99
2023-08-29T11:54:42.564Z,74.30
2023-08-29T11:57:16.844Z,74.36
2023-08-29T11:59:50.284Z,74.40
2023-08-29T12:02:23.561Z,74.29
2023-08-29T12:04:58.811Z,74.35
2023-08-29T12:07:35.820Z,74.28
2023-08-29T12:10:15.103Z,74.46
2023-08-29T12:12:47.291Z,74.19
2023-08-29T12:15:30.715Z,74.45
2023-08-29T12:18:21.082Z,74.43
2023-08-29T12:20:53.905Z,74.49
2023-08-29T12:23:30.095Z,74.56
2023-08-29T12:26:02.206Z,74.45
2023-08-29T12:28:34.658Z,74.40
2023-08-29T12:31:08.820Z,74.60
2023-08-29T12:33:41.100Z,74.51
2023-08-29T12:36:13.376Z,74.77
2023-08-29T12:38:45.561Z,74.91
2023-08-29T12:41:18.357Z,74.91
2023-08-29T12:43:50.603Z,74.82
2023-08-29T12:46:23.484Z,74.60
2023-08-29T12:48:56.462Z,74.72
2023-08-29T12:51:28.636Z,74.91
2023-08-29T12:54:01.170Z,74.83
2023-08-29T12:56:34.028Z,74.83
2023-08-29T12:59:06.600Z,75.02
2023-08-29T13:01:38.885Z,75.08
2023-08-29T13:04:11.268Z,74.83
2023-08-29T13:06:43.679Z,74.82
2023-08-29T13:09:30.791Z,74.74
2023-08-29T13:12:09.455Z,74.98
2023-08-29T13:14:41.874Z,74.98
2023-08-29T13:17:15.071Z,75.06
2023-08-29T13:19:47.527Z,75.07
2023-08-29T13:22:20.211Z,75.13
2023-08-29T13:24:53.132Z,75.06
2023-08-29T13:27:25.666Z,75.24
2023-08-29T13:29:58.251Z,75.37
2023-08-29T13:32:31.721Z,75.19
2023-08-29T13:35:05.327Z,75.13
2023-08-29T13:37:37.514Z,74.87
2023-08-29T13:40:12.290Z,75.06
2023-08-29T13:42:44.805Z,75.12
2023-08-29T13:45:17.062Z,75.23
2023-08-29T13:47:50.234Z,75.14
2023-08-29T13:50:22.628Z,75.14
2023-08-29T13:52:57.103Z,75.22
2023-08-29T13:55:29.405Z,75.32
2023-08-29T13:58:01.904Z,75.52
2023-08-29T14:00:35.660Z,75.42
2023-08-29T14:03:08.928Z,75.42
2023-08-29T14:05:42.143Z,75.54
2023-08-29T14:08:14.874Z,75.43
2023-08-29T14:10:47.040Z,75.68
2023-08-29T14:13:19.300Z,75.69
2023-08-29T14:15:58.279Z,75.73
2023-08-29T14:18:31.093Z,75.79
2023-08-29T14:21:03.747Z,75.62
2023-08-29T14:23:35.962Z,75.74
2023-08-29T14:26:12.076Z,75.53
2023-08-29T14:28:44.286Z,75.43
2023-08-29T14:31:16.781Z,75.57
2023-08-29T14:33:48.949Z,75.73
2023-08-29T14:36:21.308Z,75.72
2023-08-29T14:38:53.405Z,75.83
2023-08-29T14:41:25.613Z,75.73
2023-08-29T14:43:58.005Z,75.75
2023-08-29T14:46:30.471Z,75.46
2023-08-29T14:49:04.173Z,75.50
2023-08-29T14:51:36.970Z,75.69
2023-08-29T14:54:09.411Z,75.58
2023-08-29T14:56:42.866Z,75.75
2023-08-29T14:59:15.172Z,75.84
2023-08-29T15:01:48.279Z,75.76
2023-08-29T15:04:20.791Z,75.84
2023-08-29T15:06:53.355Z,75.73
2023-08-29T15:09:25.649Z,75.71
2023-08-29T15:11:58.239Z,75.81
2023-08-29T15:14:30.423Z,75.83
2023-08-29T15:17:02.952Z,75.92
2023-08-29T15:19:36.266Z,75.81
2023-08-29T15:22:08.899Z,75.97
2023-08-29T15:24:41.424Z,76.09
2023-08-29T15:27:13.946Z,75.92
2023-08-29T15:29:46.265Z,75.62
2023-08-29T15:32:18.797Z,75.72
2023-08-29T15:34:50.913Z,75.78
2023-08-29T15:37:23.669Z,75.64
2023-08-29T15:39:56.149Z,75.87
2023-08-29T15:42:31.910Z,76.07
2023-08-29T15:45:04.576Z,75.85
2023-08-29T15:47:36.894Z,75.79
2023-08-29T15:50:11.213Z,75.56
2023-08-29T15:52:42.160Z,75.46
2023-08-29T15:55:14.698Z,75.38
2023-08-29T15:57:46.878Z,75.38
2023-08-29T16:00:21.133Z,75.67
2023-08-29T16:02:55.313Z,75.71
2023-08-29T16:05:29.731Z,75.73
2023-08-29T16:08:02.417Z,75.85
2023-08-29T16:10:34.517Z,75.79
2023-08-29T16:13:07.021Z,75.61
2023-08-29T16:15:39.171Z,75.55
2023-08-29T16:18:11.626Z,75.67
2023-08-29T16:20:44.526Z,75.95
2023-08-29T16:23:16.852Z,75.83
2023-08-29T16:25:50.407Z,76.06
2023-08-29T16:28:24.576Z,76.23
2023-08-29T16:30:56.930Z,76.34
2023-08-29T16:33:29.299Z,76.48
2023-08-29T16:36:02.059Z,76.62
2023-08-29T16:38:34.493Z,76.80
2023-08-29T16:41:06.779Z,76.90
2023-08-29T16:43:38.983Z,76.74
2023-08-29T16:46:14.443Z,76.88
2023-08-29T16:48:47.121Z,76.96
2023-08-29T16:51:19.651Z,77.17
2023-08-29T16:53:58.432Z,77.33
2023-08-29T16:56:38.612Z,77.29
2023-08-29T16:59:13.096Z,77.43
2023-08-29T17:01:46.969Z,77.59
2023-08-29T17:04:19.479Z,77.73
2023-08-29T17:06:56.273Z,77.90
2023-08-29T17:09:38.299Z,77.84
2023-08-29T17:12:26.582Z,77.84
2023-08-29T17:15:01.283Z,78.03
2023-08-29T17:17:34.324Z,78.35
2023-08-29T17:20:11.199Z,78.56
2023-08-29T17:22:45.924Z,78.62
2023-08-29T17:25:18.717Z,78.61
2023-08-29T17:27:51.033Z,78.93
2023-08-29T17:30:23.902Z,79.09
2023-08-29T17:32:56.206Z,78.88
2023-08-29T17:35:29.858Z,79.11
2023-08-29T17:38:02.262Z,79.15
2023-08-29T17:40:35.049Z,79.22
2023-08-29T17:43:11.638Z,79.46
2023-08-29T17:45:55.076Z,79.50
2023-08-29T17:48:28.198Z,79.59
2023-08-29T17:51:01.616Z,79.51
2023-08-29T17:53:36.963Z,79.67
2023-08-29T17:56:10.010Z,79.87
2023-08-29T17:58:43.008Z,79.88
2023-08-29T18:01:15.508Z,79.90
2023-08-29T18:03:47.996Z,80.04
2023-08-29T18:06:25.016Z,80.22
2023-08-29T18:08:58.115Z,80.45
2023-08-29T18:11:31.235Z,80.43
2023-08-29T18:14:05.113Z,80.25
2023-08-29T18:16:38.048Z,80.15
2023-08-29T18:19:11.346Z,80.35
2023-08-29T18:21:44.274Z,80.62
2023-08-29T18:24:17.081Z,80.70
2023-08-29T18:26:49.751Z,80.71
2023-08-29T18:29:22.180Z,80.65
2023-08-29T18:31:55.351Z,80.68
2023-08-29T18:34:28.504Z,80.94
2023-08-29T18:37:01.020Z,81.03
2023-08-29T18:39:33.500Z,81.07
2023-08-29T18:42:06.159Z,81.22
2023-08-29T18:44:38.976Z,81.34
2023-08-29T18:47:11.711Z,81.46
2023-08-29T18:49:44.352Z,81.60
2023-08-29T18:52:17.422Z,81.49
2023-08-29T18:54:49.963Z,81.44
2023-08-29T18:57:23.489Z,81.66
2023-08-29T18:59:56.377Z,81.60
2023-08-29T19:02:29.182Z,81.66
2023-08-29T19:05:04.928Z,81.82
2023-08-29T19:07:38.046Z,81.88
2023-08-29T19:10:12.609Z,81.75
2023-08-29T19:12:46.304Z,81.56
2023-08-29T19:15:19.033Z,81.75
2023-08-29T19:17:51.811Z,81.66
2023-08-29T19:20:24.236Z,81.49
2023-08-29T19:22:57.046Z,81.63
2023-08-29T19:25:29.787Z,81.43
2023-08-29T19:28:02.617Z,81.50
2023-08-29T19:30:36.286Z,81.64
2023-08-29T19:33:12.416Z,81.87
2023-08-29T19:35:45.527Z,81.83
2023-08-29T19:38:18.278Z,81.71
2023-08-29T19:40:50.789Z,81.92
2023-08-29T19:43:23.166Z,81.74
2023-08-29T19:45:55.969Z,81.69
2023-08-29T19:48:28.508Z,81.82
2023-08-29T19:51:01.497Z,81.78
2023-08-29T19:53:36.639Z,81.95
2023-08-29T19:56:15.717Z,81.95
2023-08-29T19:58:48.207Z,81.81
2023-08-29T20:01:21.051Z,81.60
2023-08-29T20:03:54.351Z,81.56
2023-08-29T20:06:27.071Z,81.82
2023-08-29T20:08:59.556Z,81.73
2023-08-29T20:11:32.706Z,81.84
2023-08-29T20:14:05.320Z,81.84
2023-08-29T20:16:37.832Z,81.90
2023-08-29T20:19:10.695Z,81.69
2023-08-29T20:21:43.207Z,81.87
2023-08-29T20:24:15.987Z,81.81
2023-08-29T20:26:49.276Z,81.75
2023-08-29T20:29:22.330Z,81.90
2023-08-29T20:31:54.700Z,82.03
2023-08-29T20:34:27.106Z,81.73
2023-08-29T20:36:59.437Z,81.82
2023-08-29T20:39:33.256Z,81.90
2023-08-29T20:42:06.190Z,81.93
2023-08-29T20:44:38.508Z,81.93
2023-08-29T20:47:12.150Z,81.61
2023-08-29T20:49:44.847Z,81.56
2023-08-29T20:52:17.642Z,81.52
2023-08-29T20:54:51.406Z,81.58
2023-08-29T20:57:24.041Z,81.46
2023-08-29T20:59:56.790Z,81.39
2023-08-29T21:02:29.539Z,81.70
2023-08-29T21:05:02.010Z,81.75
2023-08-29T21:07:34.475Z,81.87
2023-08-29T21:10:08.534Z,81.78
2023-08-29T21:12:41.284Z,81.93
2023-08-29T21:15:14.146Z,81.95
2023-08-29T21:17:46.761Z,81.81
2023-08-29T21:20:20.828Z,81.61
2023-08-29T21:22:53.733Z,81.72
2023-08-29T21:25:26.285Z,81.81
2023-08-29T21:27:59.043Z,81.53
2023-08-29T21:30:31.456Z,81.38
2023-08-29T21:33:04.519Z,81.69
2023-08-29T21:35:38.232Z,81.25
2023-08-29T21:38:11.514Z,81.54
2023-08-29T21:40:46.786Z,81.38
2023-08-29T21:43:22.872Z,81.24
2023-08-29T21:46:00.304Z,81.28
2023-08-29T21:48:32.758Z,81.19
2023-08-29T21:51:05.758Z,81.30
2023-08-29T21:53:38.167Z,81.30
2023-08-29T21:56:13.226Z,81.35
2023-08-29T21:58:46.000Z,81.44
2023-08-29T22:01:18.456Z,81.39
2023-08-29T22:03:51.155Z,81.50
2023-08-29T22:06:23.926Z,81.27
2023-08-29T22:08:56.394Z,81.44
2023-08-29T22:11:29.188Z,81.43
2023-08-29T22:14:01.627Z,81.30
2023-08-29T22:16:34.064Z,81.33
2023-08-29T22:19:06.949Z,81.20
2023-08-29T22:21:39.386Z,81.24
2023-08-29T22:24:13.208Z,81.19
2023-08-29T22:26:46.508Z,81.27
2023-08-29T22:29:19.775Z,81.21
2023-08-29T22:31:52.149Z,81.16
2023-08-29T22:34:24.478Z,81.40
2023-08-29T22:36:57.246Z,81.09
2023-08-29T22:39:31.574Z,81.45
2023-08-29T22:42:04.037Z,81.41
2023-08-29T22:44:36.882Z,81.27
2023-08-29T22:47:09.462Z,81.07
2023-08-29T22:49:41.985Z,81.10
2023-08-29T22:52:14.557Z,81.19
2023-08-29T22:54:47.065Z,81.49
2023-08-29T22:57:20.243Z,81.33
2023-08-29T22:59:52.770Z,81.32
2023-08-29T23:02:25.368Z,81.13
2023-08-29T23:04:57.827Z,81.13
2023-08-29T23:07:30.250Z,81.28
2023-08-29T23:10:02.687Z,81.25
2023-08-29T23:12:35.153Z,81.02
2023-08-29T23:15:09.120Z,81.08
2023-08-29T23:17:42.492Z,81.08
2023-08-29T23:20:15.634Z,80.92
2023-08-29T23:22:50.607Z,80.85
2023-08-29T23:25:24.998Z,80.93
2023-08-29T23:27:57.743Z,80.93
2023-08-29T23:30:30.355Z,80.91
2023-08-29T23:33:03.153Z,80.87
2023-08-29T23:35:35.918Z,80.80
2023-08-29T23:38:08.645Z,80.69
2023-08-29T23:40:41.620Z,80.68
2023-08-29T23:43:14.507Z,80.88
2023-08-29T23:45:47.706Z,80.77
2023-08-29T23:48:20.396Z,80.56
2023-08-29T23:50:53.064Z,80.64
2023-08-29T23:53:25.711Z,80.81
2023-08-29T23:55:58.460Z,80.76
2023-08-29T23:58:31.173Z,80.53
